Time;durP1;ratioP1;P1;durP2;ratioP2;P2;SDS_P1;SDS_P2;PMS_P1;PMS_P2;Temp;Humidity;BMP_temperature;BMP_pressure;BME280_temperature;BME280_humidity;BME280_pressure;Samples;Min_cycle;Max_cycle;Signal;HPM_P1;HPM_P2
2023/07/25 00:02:14;;;;;;;3.93;2.20;;;16.40;99.90;;;;;;5000604;28;20230;-85
2023/07/25 00:04:40;;;;;;;3.30;1.80;;;16.40;99.90;;;;;;5000934;28;20221;-85
2023/07/25 00:07:05;;;;;;;4.47;2.00;;;16.40;99.90;;;;;;5000808;28;20177;-85
2023/07/25 00:09:31;;;;;;;3.90;1.83;;;16.40;99.90;;;;;;5000387;28;20175;-85
2023/07/25 00:11:56;;;;;;;2.73;1.80;;;16.40;99.90;;;;;;5019134;28;20170;-85
2023/07/25 00:14:22;;;;;;;3.60;1.90;;;16.50;99.90;;;;;;5018335;28;20198;-85
2023/07/25 00:16:47;;;;;;;4.60;2.20;;;16.50;99.90;;;;;;5018775;28;20229;-85
2023/07/25 00:19:13;;;;;;;3.40;1.90;;;16.40;99.90;;;;;;5018738;28;20186;-85
2023/07/25 00:21:38;;;;;;;4.13;2.00;;;16.40;99.90;;;;;;5017971;28;20183;-85
2023/07/25 00:24:04;;;;;;;2.27;1.90;;;16.40;99.90;;;;;;5018185;28;20270;-85
2023/07/25 00:26:30;;;;;;;3.97;1.93;;;16.50;99.90;;;;;;5018131;28;20622;-85
2023/07/25 00:28:55;;;;;;;4.27;2.20;;;16.40;99.90;;;;;;5018314;28;20553;-85
2023/07/25 00:31:21;;;;;;;2.27;2.00;;;16.50;99.90;;;;;;5000415;28;20215;-85
2023/07/25 00:33:46;;;;;;;4.63;1.97;;;16.50;99.90;;;;;;5000140;28;20186;-86
2023/07/25 00:36:12;;;;;;;2.30;1.97;;;16.50;99.90;;;;;;5018063;28;20185;-86
2023/07/25 00:38:37;;;;;;;2.90;2.10;;;16.40;99.90;;;;;;5018363;28;20183;-85
2023/07/25 00:41:03;;;;;;;6.43;2.27;;;16.40;99.90;;;;;;5017859;28;20221;-85
2023/07/25 00:43:28;;;;;;;5.73;1.93;;;16.50;99.90;;;;;;5018360;28;20898;-85
2023/07/25 00:45:54;;;;;;;3.20;1.87;;;16.40;99.90;;;;;;5017924;28;20639;-85
2023/07/25 00:48:20;;;;;;;4.60;1.93;;;16.40;99.90;;;;;;5000232;28;20183;-85
2023/07/25 00:50:46;;;;;;;3.93;2.10;;;16.40;99.90;;;;;;5017211;28;20688;-85
2023/07/25 00:53:12;;;;;;;3.50;2.30;;;16.40;99.90;;;;;;4999916;28;20266;-85
2023/07/25 00:55:38;;;;;;;4.80;2.30;;;16.40;99.90;;;;;;5018047;28;20244;-85
2023/07/25 00:58:04;;;;;;;1.93;1.80;;;16.40;99.90;;;;;;5017930;28;20179;-85
2023/07/25 01:00:30;;;;;;;2.67;2.10;;;16.30;99.90;;;;;;4999837;28;20731;-85
2023/07/25 01:02:55;;;;;;;4.70;2.17;;;16.30;99.90;;;;;;5000105;28;20610;-85
2023/07/25 01:05:22;;;;;;;6.70;2.33;;;16.20;99.90;;;;;;4999360;28;20175;-84
2023/07/25 01:07:48;;;;;;;12.00;2.33;;;16.10;99.90;;;;;;4999602;28;20171;-85
2023/07/25 01:10:14;;;;;;;9.20;2.70;;;16.10;99.90;;;;;;5017191;28;20366;-85
2023/07/25 01:12:40;;;;;;;4.67;1.90;;;16.00;99.90;;;;;;4999519;28;20668;-86
2023/07/25 01:15:06;;;;;;;6.63;2.30;;;16.00;99.90;;;;;;4999361;28;20175;-85
2023/07/25 01:17:32;;;;;;;4.13;2.07;;;16.00;99.90;;;;;;5017226;28;20203;-84
2023/07/25 01:19:58;;;;;;;7.10;1.93;;;15.90;99.90;;;;;;5017110;28;20600;-85
2023/07/25 01:22:29;;;;;;;3.73;2.00;;;16.00;99.90;;;;;;5017496;28;20183;-85
2023/07/25 01:24:55;;;;;;;3.70;2.07;;;15.90;99.90;;;;;;4998790;28;20695;-86
2023/07/25 01:27:20;;;;;;;4.23;2.10;;;16.00;99.90;;;;;;4999109;28;20172;-85
2023/07/25 01:29:46;;;;;;;3.33;2.17;;;16.00;99.90;;;;;;5017250;28;20199;-85
2023/07/25 01:32:11;;;;;;;4.53;2.20;;;16.00;99.90;;;;;;5016964;28;20186;-85
2023/07/25 01:34:38;;;;;;;5.83;2.20;;;16.00;99.90;;;;;;4999172;28;20217;-86
2023/07/25 01:37:07;;;;;;;3.03;1.90;;;15.90;99.90;;;;;;4998587;28;20183;-85
2023/07/25 01:39:33;;;;;;;4.27;1.97;;;16.00;99.90;;;;;;5016868;28;20176;-85
2023/07/25 01:41:58;;;;;;;6.33;1.97;;;15.90;99.90;;;;;;5017191;28;20179;-85
2023/07/25 01:44:24;;;;;;;2.50;1.80;;;15.90;99.90;;;;;;5016648;28;20674;-86
2023/07/25 01:46:49;;;;;;;2.97;2.00;;;15.80;99.90;;;;;;5016835;28;20657;-85
2023/07/25 01:49:15;;;;;;;5.83;2.10;;;15.80;99.90;;;;;;4998424;28;20175;-85
2023/07/25 01:51:40;;;;;;;3.97;1.77;;;15.80;99.90;;;;;;4998505;28;20182;-85
2023/07/25 01:54:06;;;;;;;5.67;1.97;;;15.70;99.90;;;;;;4998304;28;20646;-85
2023/07/25 01:56:31;;;;;;;6.80;2.13;;;15.70;99.90;;;;;;4998516;28;20179;-85
2023/07/25 01:58:57;;;;;;;10.00;2.27;;;15.80;99.90;;;;;;5016613;28;20183;-85
2023/07/25 02:01:23;;;;;;;4.83;2.20;;;15.60;99.90;;;;;;5016445;28;20205;-85
2023/07/25 02:03:48;;;;;;;5.57;2.53;;;15.50;99.90;;;;;;4998421;28;20195;-86
2023/07/25 02:06:14;;;;;;;5.07;2.17;;;15.40;99.90;;;;;;4998483;28;20273;-85
2023/07/25 02:08:39;;;;;;;5.40;2.07;;;15.40;99.90;;;;;;4998301;28;20185;-85
2023/07/25 02:11:05;;;;;;;5.37;2.23;;;15.40;99.90;;;;;;4998050;28;20213;-85
2023/07/25 02:13:31;;;;;;;2.03;1.80;;;15.40;99.90;;;;;;5016351;28;20178;-85
2023/07/25 02:15:56;;;;;;;4.47;2.00;;;15.30;99.90;;;;;;5015025;28;20186;-85
2023/07/25 02:18:22;;;;;;;3.77;2.30;;;15.40;99.90;;;;;;5015323;28;20171;-85
2023/07/25 02:20:47;;;;;;;3.63;2.03;;;15.30;99.90;;;;;;5016353;28;20245;-85
2023/07/25 02:23:13;;;;;;;4.33;2.03;;;15.40;99.90;;;;;;4998567;28;20202;-85
2023/07/25 02:25:38;;;;;;;4.53;1.90;;;15.30;99.90;;;;;;5016590;28;20553;-85
2023/07/25 02:28:04;;;;;;;2.13;1.90;;;15.30;99.90;;;;;;4998122;28;20213;-85
2023/07/25 02:30:30;;;;;;;5.63;2.10;;;15.30;99.90;;;;;;5016060;28;20217;-85
2023/07/25 02:32:55;;;;;;;4.67;2.10;;;15.20;99.90;;;;;;4998515;28;20174;-85
2023/07/25 02:35:21;;;;;;;5.57;2.30;;;15.20;99.90;;;;;;5015934;28;20182;-85
2023/07/25 02:37:46;;;;;;;11.87;2.63;;;15.20;99.90;;;;;;4998221;28;20181;-85
2023/07/25 02:40:12;;;;;;;12.03;2.77;;;15.20;99.90;;;;;;5000753;28;20229;-85
2023/07/25 02:42:37;;;;;;;5.37;1.97;;;15.10;99.90;;;;;;4998555;28;20163;-85
2023/07/25 02:45:03;;;;;;;5.57;2.40;;;15.20;99.90;;;;;;5015901;28;20203;-85
2023/07/25 02:47:29;;;;;;;4.10;2.10;;;15.10;99.90;;;;;;4998819;28;20207;-85
2023/07/25 02:49:54;;;;;;;4.43;2.10;;;15.20;99.90;;;;;;4997642;28;20254;-85
2023/07/25 02:52:20;;;;;;;4.70;2.40;;;15.10;99.90;;;;;;4998109;28;20179;-85
2023/07/25 02:54:45;;;;;;;4.37;1.97;;;15.20;99.90;;;;;;4997732;28;20294;-85
2023/07/25 02:57:11;;;;;;;3.03;2.10;;;15.20;99.90;;;;;;5014075;28;20197;-85
2023/07/25 02:59:37;;;;;;;4.07;2.03;;;15.20;99.90;;;;;;5016089;28;20190;-85
2023/07/25 03:02:02;;;;;;;4.87;2.20;;;15.10;99.90;;;;;;4998202;28;20179;-86
2023/07/25 03:04:28;;;;;;;2.43;2.00;;;15.00;99.90;;;;;;5013924;28;20208;-85
2023/07/25 03:06:54;;;;;;;2.30;2.07;;;15.00;99.90;;;;;;4997476;28;20643;-85
2023/07/25 03:09:19;;;;;;;4.97;2.30;;;14.90;99.90;;;;;;5014043;28;20249;-85
2023/07/25 03:11:45;;;;;;;4.67;2.40;;;14.90;99.90;;;;;;5004967;28;20178;-85
2023/07/25 03:14:10;;;;;;;3.87;2.03;;;15.00;99.90;;;;;;5016554;28;20182;-85
2023/07/25 03:16:36;;;;;;;3.07;2.20;;;15.10;99.90;;;;;;4997764;28;20186;-85
2023/07/25 03:19:02;;;;;;;2.33;2.13;;;15.10;99.90;;;;;;5015725;28;20175;-85
2023/07/25 03:21:27;;;;;;;4.13;2.10;;;15.20;99.90;;;;;;5015709;28;20203;-86
2023/07/25 03:23:53;;;;;;;5.57;2.50;;;15.10;99.90;;;;;;5015669;28;20199;-85
2023/07/25 03:26:19;;;;;;;2.97;2.10;;;15.00;99.90;;;;;;4997549;28;20175;-85
2023/07/25 03:28:44;;;;;;;2.47;2.13;;;15.10;99.90;;;;;;4997848;28;20171;-85
2023/07/25 03:31:10;;;;;;;3.57;2.10;;;15.20;99.90;;;;;;5000759;28;20199;-86
2023/07/25 03:33:35;;;;;;;2.67;2.17;;;15.30;99.90;;;;;;5019263;28;20182;-86
2023/07/25 03:36:01;;;;;;;3.80;2.17;;;15.40;99.90;;;;;;5005986;28;20239;-85
2023/07/25 03:38:26;;;;;;;3.23;2.20;;;15.30;99.90;;;;;;5019229;28;20597;-85
2023/07/25 03:40:52;;;;;;;3.67;2.17;;;15.30;99.90;;;;;;5001422;28;20202;-85
2023/07/25 03:43:18;;;;;;;4.07;2.20;;;15.40;99.90;;;;;;5019009;28;20195;-85
2023/07/25 03:45:44;;;;;;;2.23;2.03;;;15.40;99.90;;;;;;5018470;28;20187;-85
2023/07/25 03:48:09;;;;;;;2.87;2.47;;;15.40;99.90;;;;;;5018929;28;20167;-85
2023/07/25 03:50:35;;;;;;;4.57;2.67;;;15.40;99.90;;;;;;5018257;28;20198;-85
2023/07/25 03:53:05;;;;;;;2.93;2.50;;;15.40;99.90;;;;;;5000434;28;20214;-86
2023/07/25 03:55:30;;;;;;;2.70;2.50;;;15.40;99.90;;;;;;5000802;28;20186;-85
2023/07/25 03:57:56;;;;;;;4.03;2.33;;;15.40;99.90;;;;;;5018365;28;20175;-85
2023/07/25 04:00:21;;;;;;;2.50;2.30;;;15.40;99.90;;;;;;5018129;28;20191;-86
2023/07/25 04:02:47;;;;;;;5.80;2.50;;;15.40;99.90;;;;;;5018006;28;20179;-85
2023/07/25 04:05:14;;;;;;;6.23;2.50;;;15.50;99.90;;;;;;5000627;28;20759;-85
2023/07/25 04:07:39;;;;;;;5.23;2.53;;;15.50;99.90;;;;;;5018235;28;20266;-85
2023/07/25 04:10:06;;;;;;;6.70;3.00;;;15.60;99.90;;;;;;5027862;23;20352;-82
2023/07/25 04:12:31;;;;;;;7.77;3.03;;;15.60;99.90;;;;;;5037598;28;20181;-83
2023/07/25 04:14:57;;;;;;;5.53;2.37;;;15.60;99.90;;;;;;5037734;28;20173;-83
2023/07/25 04:17:23;;;;;;;2.90;2.50;;;15.60;99.90;;;;;;5037530;28;20319;-82
2023/07/25 04:19:49;;;;;;;3.60;2.40;;;15.50;99.90;;;;;;5037229;28;20714;-82
2023/07/25 04:22:14;;;;;;;3.90;2.53;;;15.60;99.90;;;;;;5055220;28;20186;-83
2023/07/25 04:24:40;;;;;;;5.83;2.60;;;15.60;99.90;;;;;;5037100;28;20255;-83
2023/07/25 04:27:05;;;;;;;4.87;2.60;;;15.70;99.90;;;;;;5037416;28;20563;-82
2023/07/25 04:29:31;;;;;;;3.23;2.50;;;15.70;99.90;;;;;;5037382;28;20173;-82
2023/07/25 04:31:56;;;;;;;4.53;2.60;;;15.70;99.90;;;;;;5036946;28;20204;-82
2023/07/25 04:34:22;;;;;;;5.90;2.93;;;15.80;99.90;;;;;;5037379;28;20659;-85
2023/07/25 04:36:48;;;;;;;5.10;3.30;;;15.70;99.90;;;;;;5037531;28;20181;-79
2023/07/25 04:39:13;;;;;;;5.43;2.30;;;15.60;99.90;;;;;;5054457;28;20181;-79
2023/07/25 04:41:39;;;;;;;6.87;3.17;;;15.60;99.90;;;;;;5053971;28;20197;-78
2023/07/25 04:44:04;;;;;;;5.27;2.83;;;15.60;99.90;;;;;;5036278;28;20233;-80
2023/07/25 04:46:30;;;;;;;4.73;2.83;;;15.60;99.90;;;;;;5036694;28;20257;-79
2023/07/25 04:48:59;;;;;;;4.53;2.80;;;15.60;99.90;;;;;;5054081;28;20659;-79
2023/07/25 04:51:24;;;;;;;4.73;2.80;;;15.60;99.90;;;;;;5036183;28;20197;-79
2023/07/25 04:53:50;;;;;;;3.27;2.60;;;15.60;99.90;;;;;;5055332;28;20600;-78
2023/07/25 04:56:16;;;;;;;3.00;2.70;;;15.60;99.90;;;;;;5037382;28;20178;-78
2023/07/25 04:58:41;;;;;;;3.50;2.57;;;15.60;99.90;;;;;;5036924;28;20213;-81
2023/07/25 05:01:08;;;;;;;3.40;2.80;;;15.60;99.90;;;;;;5055346;28;20193;-78
2023/07/25 05:03:33;;;;;;;3.43;3.13;;;15.60;99.90;;;;;;5055302;28;20193;-81
2023/07/25 05:05:59;;;;;;;4.00;3.10;;;15.60;99.90;;;;;;5038025;28;20235;-81
2023/07/25 05:08:25;;;;;;;2.30;2.10;;;15.70;99.90;;;;;;5055251;28;20306;-78
2023/07/25 05:10:52;;;;;;;5.23;2.47;;;16.10;99.90;;;;;;5035506;28;20205;-78
2023/07/25 05:13:18;;;;;;;3.23;2.10;;;17.40;99.90;;;;;;5035744;28;20676;-80
2023/07/25 05:15:44;;;;;;;2.40;2.07;;;18.20;1.00;;;;;;5053637;28;20205;-78
2023/07/25 05:18:09;;;;;;;2.67;2.13;;;18.80;1.00;;;;;;5035998;28;20182;-78
2023/07/25 05:20:35;;;;;;;3.87;2.20;;;18.90;99.90;;;;;;5035442;28;20295;-78
2023/07/25 05:23:01;;;;;;;2.70;2.10;;;19.30;1.00;;;;;;5035647;28;20177;-78
2023/07/25 05:25:26;;;;;;;2.20;2.00;;;19.50;99.90;;;;;;5036714;28;20178;-81
2023/07/25 05:27:52;;;;;;;3.10;2.50;;;19.70;1.00;;;;;;5053747;28;20181;-79
2023/07/25 05:30:17;;;;;;;3.07;2.40;;;19.60;99.90;;;;;;5035518;28;20288;-82
2023/07/25 05:32:43;;;;;;;2.67;1.80;;;19.50;99.90;;;;;;5036254;28;20181;-83
2023/07/25 05:35:09;;;;;;;3.20;2.63;;;19.80;1.00;;;;;;5052976;28;20260;-84
2023/07/25 05:37:36;;;;;;;4.97;1.97;;;20.00;99.90;;;;;;5035334;28;20177;-83
2023/07/25 05:40:02;;;;;;;2.45;2.10;;;20.20;1.00;;;;;;5053424;28;20212;-83
2023/07/25 05:42:28;;;;;;;2.85;1.77;;;20.40;99.90;;;;;;5035346;28;20640;-84
2023/07/25 05:44:54;;;;;;;2.92;2.20;;;20.50;99.90;;;;;;5053017;28;20201;-84
2023/07/25 05:47:19;;;;;;;4.00;2.47;;;20.40;99.90;;;;;;5052956;28;20644;-85
2023/07/25 05:49:45;;;;;;;4.55;2.83;;;20.20;1.00;;;;;;5052705;28;20205;-85
2023/07/25 05:52:10;;;;;;;2.92;2.60;;;20.20;1.00;;;;;;5033150;28;20181;-84
2023/07/25 05:54:36;;;;;;;3.38;2.92;;;20.20;99.90;;;;;;5036995;28;20193;-84
2023/07/25 05:57:02;;;;;;;4.63;3.03;;;19.90;1.00;;;;;;5035861;28;20583;-84
2023/07/25 05:59:27;;;;;;;4.55;2.20;;;20.10;91.60;;;;;;5054156;28;20303;-83
2023/07/25 06:01:53;;;;;;;5.65;2.25;;;20.00;99.90;;;;;;5029181;28;20794;-83
2023/07/25 06:04:19;;;;;;;3.53;2.47;;;19.70;99.90;;;;;;5053821;28;20189;-83
2023/07/25 06:06:44;;;;;;;4.87;3.20;;;19.70;99.90;;;;;;5053914;28;20170;-82
2023/07/25 06:09:10;;;;;;;3.47;3.17;;;19.60;1.00;;;;;;5054696;28;20185;-82
2023/07/25 06:11:36;;;;;;;5.20;4.13;;;19.40;99.90;;;;;;5035644;28;20216;-82
2023/07/25 06:14:01;;;;;;;6.83;4.30;;;19.30;99.90;;;;;;5052025;28;20180;-82
2023/07/25 06:16:27;;;;;;;4.13;3.03;;;19.20;99.90;;;;;;5053426;28;20268;-82
2023/07/25 06:18:52;;;;;;;5.07;3.80;;;19.30;99.90;;;;;;5035156;28;20166;-83
2023/07/25 06:21:18;;;;;;;5.30;4.80;;;19.10;99.90;;;;;;5052957;28;20278;-83
2023/07/25 06:23:43;;;;;;;4.60;3.43;;;19.00;1.00;;;;;;5053227;28;20201;-82
2023/07/25 06:26:09;;;;;;;4.67;3.50;;;18.80;99.90;;;;;;5053217;28;20176;-82
2023/07/25 06:28:35;;;;;;;3.60;2.97;;;19.00;1.00;;;;;;5034658;28;20185;-82
2023/07/25 06:31:02;;;;;;;4.07;3.40;;;19.00;99.90;;;;;;5052418;28;20190;-82
2023/07/25 06:33:28;;;;;;;4.60;3.93;;;18.80;99.90;;;;;;5037828;28;20196;-82
2023/07/25 06:35:53;;;;;;;6.23;4.80;;;18.70;99.90;;;;;;5034925;28;20181;-82
2023/07/25 06:38:19;;;;;;;4.47;3.50;;;18.60;99.90;;;;;;5039763;28;20193;-80
2023/07/25 06:40:45;;;;;;;4.23;3.43;;;18.80;99.90;;;;;;5052964;28;20216;-82
2023/07/25 06:43:10;;;;;;;5.13;4.23;;;18.80;1.00;;;;;;5052487;28;20178;-82
2023/07/25 06:45:36;;;;;;;6.27;5.00;;;18.70;1.00;;;;;;5035193;28;20227;-82
2023/07/25 06:48:01;;;;;;;6.10;4.43;;;18.40;7.70;;;;;;5035674;28;20177;-82
2023/07/25 06:50:27;;;;;;;7.50;3.90;;;18.40;1.00;;;;;;5034863;28;20604;-82
2023/07/25 06:52:52;;;;;;;5.47;3.30;;;18.70;1.00;;;;;;5035156;28;20165;-82
2023/07/25 06:55:19;;;;;;;3.17;2.87;;;18.90;1.00;;;;;;5035309;28;20561;-81
2023/07/25 06:57:45;;;;;;;5.73;3.13;;;19.00;1.00;;;;;;5027173;28;20200;-82
2023/07/25 07:00:11;;;;;;;4.83;3.03;;;19.10;99.90;;;;;;5052820;28;20189;-82
2023/07/25 07:02:37;;;;;;;4.70;3.13;;;19.50;1.00;;;;;;5035249;28;20608;-82
2023/07/25 07:05:02;;;;;;;4.87;4.37;;;19.40;99.90;;;;;;5035741;28;20276;-82
2023/07/25 07:07:28;;;;;;;5.17;3.77;;;19.30;99.90;;;;;;5056620;28;20177;-82
2023/07/25 07:09:53;;;;;;;4.77;3.20;;;19.20;99.90;;;;;;5038336;28;20170;-82
2023/07/25 07:12:19;;;;;;;6.73;5.90;;;19.60;1.00;;;;;;5037965;28;20216;-78
2023/07/25 07:14:44;;;;;;;7.00;6.07;;;19.20;1.00;;;;;;5055735;28;20228;-79
2023/07/25 07:17:10;;;;;;;7.77;6.20;;;18.60;2.40;;;;;;5055266;28;20177;-79
2023/07/25 07:19:36;;;;;;;7.03;6.33;;;18.20;99.90;;;;;;5037238;28;20182;-76
2023/07/25 07:22:01;;;;;;;8.60;6.50;;;18.00;99.90;;;;;;5054793;28;20296;-79
2023/07/25 07:24:27;;;;;;;7.53;6.27;;;17.80;99.90;;;;;;5037197;28;20255;-80
2023/07/25 07:26:52;;;;;;;7.53;6.83;;;17.70;99.90;;;;;;5055264;28;20180;-79
2023/07/25 07:29:18;;;;;;;9.27;7.63;;;17.60;99.90;;;;;;5037349;28;20256;-79
2023/07/25 07:31:43;;;;;;;9.23;7.37;;;17.60;99.90;;;;;;5053794;28;20263;-78
2023/07/25 07:34:15;;;;;;;9.77;7.50;;;17.40;99.90;;;;;;5037029;28;20182;-79
2023/07/25 07:36:44;;;;;;;9.10;7.20;;;17.40;99.90;;;;;;5037634;28;20174;-79
2023/07/25 07:39:10;;;;;;;8.63;7.83;;;17.10;99.90;;;;;;5037281;28;20227;-78
2023/07/25 07:41:36;;;;;;;9.13;8.23;;;17.00;99.90;;;;;;5036898;28;20602;-79
2023/07/25 07:44:01;;;;;;;9.00;8.10;;;17.00;99.90;;;;;;5054961;28;20284;-78
2023/07/25 07:46:31;;;;;;;8.47;7.53;;;17.00;99.90;;;;;;5054951;28;20672;-79
2023/07/25 07:48:58;;;;;;;8.80;7.90;;;16.90;99.90;;;;;;5036981;28;20177;-78
2023/07/25 07:51:24;;;;;;;8.17;7.30;;;17.00;99.90;;;;;;5036791;28;20212;-78
2023/07/25 07:53:50;;;;;;;8.90;8.00;;;17.00;99.90;;;;;;5054878;28;20188;-79
2023/07/25 07:56:16;;;;;;;8.97;8.07;;;17.00;99.90;;;;;;5054999;28;20608;-78
2023/07/25 07:58:41;;;;;;;10.13;8.03;;;17.10;99.90;;;;;;5036950;28;20185;-78
2023/07/25 08:01:18;;;;;;;10.23;8.50;;;17.10;99.90;;;;;;5054310;28;20201;-78
2023/07/25 08:03:44;;;;;;;9.57;8.07;;;17.20;99.90;;;;;;5054654;28;20214;-78
2023/07/25 08:06:10;;;;;;;9.53;7.90;;;17.10;99.90;;;;;;5054726;28;20204;-78
2023/07/25 08:08:36;;;;;;;9.40;8.03;;;17.10;99.90;;;;;;5054706;28;20185;-74
2023/07/25 08:11:01;;;;;;;9.80;7.77;;;17.10;99.90;;;;;;5036487;28;20240;-77
2023/07/25 08:13:27;;;;;;;8.50;7.60;;;17.10;99.90;;;;;;5054196;28;20173;-77
2023/07/25 08:15:53;;;;;;;91.90;16.20;;;17.10;99.90;;;;;;5035431;28;20226;-78
2023/07/25 08:18:18;;;;;;;11.63;8.33;;;17.20;99.90;;;;;;5036533;28;20185;-77
2023/07/25 08:20:45;;;;;;;9.77;8.60;;;17.20;99.90;;;;;;5054359;28;20198;-78
2023/07/25 08:23:11;;;;;;;9.07;8.17;;;17.20;99.90;;;;;;5054771;28;20223;-78
2023/07/25 08:25:40;;;;;;;93.87;25.93;;;16.90;99.90;;;;;;5054271;28;20170;-79
2023/07/25 08:28:06;;;;;;;8.90;8.00;;;17.00;99.90;;;;;;5053093;28;20182;-78
2023/07/25 08:30:32;;;;;;;11.33;8.23;;;17.10;99.90;;;;;;5036057;28;20572;-78
2023/07/25 08:32:57;;;;;;;7.70;5.37;;;17.10;99.90;;;;;;5036654;28;20185;-79
2023/07/25 08:35:23;;;;;;;9.40;8.40;;;17.10;99.90;;;;;;5054105;28;20251;-77
2023/07/25 08:37:49;;;;;;;8.07;7.23;;;17.10;99.90;;;;;;5036250;28;20567;-76
2023/07/25 08:40:15;;;;;;;8.80;6.80;;;17.10;99.90;;;;;;5035668;28;20216;-78
2023/07/25 08:42:49;;;;;;;8.50;7.40;;;17.10;99.90;;;;;;5053899;28;20174;-77
2023/07/25 08:45:15;;;;;;;9.33;7.90;;;17.00;99.90;;;;;;5054072;28;20205;-78
2023/07/25 08:47:43;;;;;;;8.47;7.37;;;17.10;99.90;;;;;;5053999;28;20253;-78
2023/07/25 08:50:16;;;;;;;10.13;8.53;;;17.10;99.90;;;;;;5035564;28;20193;-78
2023/07/25 08:52:51;;;;;;;8.53;7.63;;;17.10;99.90;;;;;;5052816;28;20165;-77
2023/07/25 08:55:17;;;;;;;10.23;8.37;;;17.00;99.90;;;;;;5052522;28;20192;-79
2023/07/25 08:57:43;;;;;;;8.23;7.33;;;17.10;99.90;;;;;;5053731;28;20243;-79
2023/07/25 09:00:11;;;;;;;9.30;7.40;;;17.10;99.90;;;;;;5035501;28;20197;-79
2023/07/25 09:02:37;;;;;;;7.67;6.87;;;17.10;99.90;;;;;;5052637;28;20272;-78
2023/07/25 09:05:04;;;;;;;8.87;7.37;;;17.10;99.90;;;;;;5029543;28;20321;-76
2023/07/25 09:07:29;;;;;;;8.10;6.90;;;17.10;99.90;;;;;;5031859;28;20201;-77
2023/07/25 09:09:55;;;;;;;7.33;6.50;;;17.20;99.90;;;;;;5035359;28;20169;-75
2023/07/25 09:12:21;;;;;;;7.37;6.43;;;17.20;99.90;;;;;;5053526;28;20231;-75
2023/07/25 09:14:46;;;;;;;7.03;6.33;;;17.20;99.90;;;;;;5035846;28;20231;-77
2023/07/25 09:17:12;;;;;;;7.07;6.27;;;17.20;99.90;;;;;;5035311;28;20178;-77
2023/07/25 09:19:38;;;;;;;6.70;6.10;;;17.30;99.90;;;;;;5016019;28;20182;-77
2023/07/25 09:22:04;;;;;;;8.77;5.70;;;17.20;99.90;;;;;;5016078;28;20200;-76
2023/07/25 09:24:37;;;;;;;6.43;5.80;;;17.20;99.90;;;;;;5033391;28;20213;-77
2023/07/25 09:27:04;;;;;;;6.23;5.63;;;17.20;99.90;;;;;;5015722;28;20220;-77
2023/07/25 09:29:30;;;;;;;6.90;6.00;;;17.20;99.90;;;;;;5015683;28;20166;-76
2023/07/25 09:31:56;;;;;;;6.50;5.90;;;17.20;99.90;;;;;;5015487;28;20217;-77
2023/07/25 09:34:25;;;;;;;7.10;6.40;;;17.20;99.90;;;;;;5033682;28;20171;-77
2023/07/25 09:36:51;;;;;;;8.68;7.50;;;17.20;99.90;;;;;;5032997;28;20420;-78
2023/07/25 09:39:17;;;;;;;7.17;6.40;;;17.20;99.90;;;;;;5033831;28;20173;-77
2023/07/25 09:41:45;;;;;;;7.27;6.50;;;17.10;99.90;;;;;;5033507;28;20190;-77
2023/07/25 09:44:11;;;;;;;6.87;5.60;;;17.10;99.90;;;;;;5034096;28;20690;-77
2023/07/25 09:46:37;;;;;;;6.50;5.80;;;17.10;99.90;;;;;;5016416;28;20178;-77
2023/07/25 09:49:03;;;;;;;6.20;5.60;;;17.00;99.90;;;;;;5039626;28;20170;-77
2023/07/25 09:51:28;;;;;;;6.97;5.17;;;17.00;99.90;;;;;;5035602;28;20205;-78
2023/07/25 09:53:55;;;;;;;6.67;6.00;;;17.00;99.90;;;;;;5053410;28;20170;-77
2023/07/25 09:56:25;;;;;;;7.23;6.20;;;17.00;99.90;;;;;;5053420;28;20192;-79
2023/07/25 09:58:51;;;;;;;7.17;5.97;;;17.00;99.90;;;;;;5053898;28;20177;-74
2023/07/25 10:01:18;;;;;;;6.70;6.00;;;17.00;99.90;;;;;;5035548;28;20204;-77
2023/07/25 10:03:44;;;;;;;6.30;5.70;;;17.00;99.90;;;;;;5035051;28;20284;-81
2023/07/25 10:06:12;;;;;;;480.80;46.03;;;17.00;99.90;;;;;;5053074;28;20694;-78
2023/07/25 10:08:44;;;;;;;40.10;17.30;;;17.00;99.90;;;;;;5053058;28;20702;-78
2023/07/25 10:11:12;;;;;;;5.90;5.33;;;16.90;99.90;;;;;;5073332;23;20221;-85
2023/07/25 10:13:40;;;;;;;7.17;5.70;;;16.80;99.90;;;;;;5046814;28;20178;-84
2023/07/25 10:16:08;;;;;;;246.63;16.67;;;16.70;99.90;;;;;;5056307;28;20176;-83
2023/07/25 10:18:34;;;;;;;7.73;5.80;;;16.70;99.90;;;;;;5037085;28;20178;-85
2023/07/25 10:21:00;;;;;;;6.60;5.53;;;16.60;99.90;;;;;;5036543;28;20219;-84
2023/07/25 10:23:31;;;;;;;6.33;5.17;;;16.60;99.90;;;;;;5036653;28;20173;-84
2023/07/25 10:25:56;;;;;;;5.50;5.00;;;16.50;99.90;;;;;;5053718;28;20177;-86
2023/07/25 10:28:22;;;;;;;4.70;3.63;;;16.50;99.90;;;;;;5054457;28;20165;-85
2023/07/25 10:30:48;;;;;;;4.97;4.47;;;16.50;99.90;;;;;;5055000;28;20194;-83
2023/07/25 10:33:15;;;;;;;4.13;2.60;;;16.50;99.90;;;;;;5036900;28;20173;-82
2023/07/25 10:35:55;;;;;;;4.87;3.63;;;16.30;99.90;;;;;;5036484;28;20260;-82
2023/07/25 10:38:34;;;;;;;4.87;3.47;;;16.20;99.90;;;;;;5054241;28;20176;-82
2023/07/25 10:41:09;;;;;;;3.17;2.47;;;16.10;99.90;;;;;;5053497;28;20682;-82
2023/07/25 10:43:52;;;;;;;3.57;2.40;;;15.90;99.90;;;;;;5054576;28;20208;-83
2023/07/25 10:46:29;;;;;;;3.10;2.70;;;15.80;99.90;;;;;;5036545;28;20197;-82
2023/07/25 10:48:57;;;;;;;3.33;2.63;;;15.60;99.90;;;;;;5054379;28;20174;-83
2023/07/25 10:51:43;;;;;;;2.83;2.27;;;15.70;99.90;;;;;;5054548;28;20201;-83
2023/07/25 10:54:09;;;;;;;2.30;2.10;;;15.60;99.90;;;;;;5035635;28;20220;-82
2023/07/25 10:56:35;;;;;;;2.77;2.40;;;15.60;99.90;;;;;;5054254;28;20247;-81
2023/07/25 10:59:08;;;;;;;3.73;2.40;;;15.60;99.90;;;;;;5040105;28;20179;-83
2023/07/25 11:01:37;;;;;;;2.60;2.40;;;15.50;99.90;;;;;;5016873;28;20206;-83
2023/07/25 11:04:26;;;;;;;5.50;2.70;;;15.50;99.90;;;;;;5034342;28;20194;-82
2023/07/25 11:07:13;;;;;;;5.27;2.80;;;15.40;99.90;;;;;;5039038;28;20186;-82
2023/07/25 11:09:43;;;;;;;3.30;2.60;;;15.40;99.90;;;;;;5029975;28;20181;-82
2023/07/25 11:12:14;;;;;;;5.40;2.60;;;15.40;99.90;;;;;;5036101;28;20569;-82
2023/07/25 11:14:44;;;;;;;2.93;2.60;;;15.50;99.90;;;;;;5053781;28;20250;-82
2023/07/25 11:17:11;;;;;;;6.13;2.67;;;15.40;99.90;;;;;;5053973;28;20177;-83
2023/07/25 11:19:36;;;;;;;3.37;2.50;;;15.50;99.90;;;;;;5035726;28;20671;-82
2023/07/25 11:22:08;;;;;;;5.33;2.50;;;15.60;99.90;;;;;;5036070;28;20240;-83
2023/07/25 11:24:48;;;;;;;3.90;2.53;;;15.60;99.90;;;;;;5036123;28;20219;-82
2023/07/25 11:27:14;;;;;;;3.33;2.53;;;15.50;99.90;;;;;;5035966;28;20221;-83
2023/07/25 11:29:40;;;;;;;3.67;2.83;;;15.50;99.90;;;;;;5029540;28;20585;-82
2023/07/25 11:32:07;;;;;;;3.37;2.57;;;15.40;99.90;;;;;;5034400;28;20332;-83
2023/07/25 11:34:32;;;;;;;5.00;2.73;;;15.40;99.90;;;;;;5016428;28;20324;-83
2023/07/25 11:36:58;;;;;;;5.67;2.83;;;15.40;99.90;;;;;;5034772;28;20202;-83
2023/07/25 11:39:24;;;;;;;5.00;3.17;;;15.30;99.90;;;;;;5034728;28;20170;-83
2023/07/25 11:41:49;;;;;;;4.20;2.77;;;15.20;99.90;;;;;;5017490;28;20194;-82
2023/07/25 11:44:18;;;;;;;4.13;2.80;;;15.10;99.90;;;;;;5016732;28;20194;-82
2023/07/25 11:46:47;;;;;;;2.90;2.60;;;15.10;99.90;;;;;;5017179;28;20167;-82
2023/07/25 11:49:15;;;;;;;7.37;3.60;;;15.20;99.90;;;;;;5016000;28;20201;-83
2023/07/25 11:51:41;;;;;;;6.30;3.40;;;15.20;99.90;;;;;;5018672;28;20558;-82
2023/07/25 11:54:07;;;;;;;3.77;3.10;;;15.00;99.90;;;;;;5019960;28;20179;-82
2023/07/25 11:56:36;;;;;;;3.77;3.47;;;15.10;99.90;;;;;;5019470;28;20202;-82
2023/07/25 11:59:03;;;;;;;4.53;3.30;;;15.10;99.90;;;;;;5019855;28;20182;-83
2023/07/25 12:01:33;;;;;;;4.00;3.37;;;15.20;99.90;;;;;;5019281;28;20620;-83
2023/07/25 12:04:02;;;;;;;4.00;3.40;;;15.20;99.90;;;;;;5037809;28;20203;-82
2023/07/25 12:06:30;;;;;;;3.77;3.10;;;15.30;99.90;;;;;;5021136;28;20178;-81
2023/07/25 12:08:56;;;;;;;2.10;1.90;;;15.40;99.90;;;;;;5038524;28;20170;-82
2023/07/25 12:11:22;;;;;;;1.43;1.30;;;15.60;99.90;;;;;;5037432;28;20696;-82
2023/07/25 12:13:52;;;;;;;3.67;1.47;;;15.40;99.90;;;;;;5020021;28;20174;-82
2023/07/25 12:16:35;;;;;;;2.87;1.60;;;15.60;99.90;;;;;;5019632;28;20178;-82
2023/07/25 12:19:07;;;;;;;24.60;3.10;;;16.00;99.90;;;;;;5019787;28;20216;-82
2023/07/25 12:21:34;;;;;;;2.37;1.47;;;16.40;99.90;;;;;;5019079;28;20198;-82
2023/07/25 12:24:04;;;;;;;2.60;1.70;;;16.70;99.90;;;;;;5036926;28;20680;-85
2023/07/25 12:26:41;;;;;;;2.20;1.77;;;17.30;99.90;;;;;;5018797;28;20181;-85
2023/07/25 12:29:13;;;;;;;3.47;1.87;;;17.40;99.90;;;;;;5018325;28;20261;-84
2023/07/25 12:31:38;;;;;;;2.40;1.70;;;17.30;99.90;;;;;;5018888;28;20191;-83
2023/07/25 12:34:04;;;;;;;2.70;1.70;;;17.40;99.90;;;;;;5037361;28;20246;-83
2023/07/25 12:36:29;;;;;;;2.00;1.80;;;17.60;99.90;;;;;;5037982;28;20174;-82
2023/07/25 12:38:55;;;;;;;1.50;1.40;;;17.60;99.90;;;;;;5038413;28;20185;-81
2023/07/25 12:41:22;;;;;;;3.10;1.50;;;17.50;99.90;;;;;;5018992;28;20248;-84
2023/07/25 12:43:48;;;;;;;1.83;1.40;;;17.60;99.90;;;;;;5036870;28;20202;-85
2023/07/25 12:46:14;;;;;;;1.23;1.13;;;17.60;99.90;;;;;;5036774;28;20533;-85